createdAt,value
2018-07-13T00:02:42.076Z,101773.83
2018-07-13T00:06:06.515Z,101766.41
2018-07-13T00:09:30.979Z,101766.66
2018-07-13T00:12:55.399Z,101771.95
2018-07-13T00:16:19.566Z,101773.35
2018-07-13T00:19:44.044Z,101771.83
2018-07-13T00:23:08.502Z,101769.84
2018-07-13T00:26:32.964Z,101768.73
2018-07-13T00:29:57.442Z,101776.32
2018-07-13T00:33:21.863Z,101773.48
2018-07-13T00:36:46.289Z,101770.83
2018-07-13T00:40:10.747Z,101772.14
2018-07-13T00:43:35.186Z,101778.50
2018-07-13T00:46:59.636Z,101774.70
2018-07-13T00:50:24.098Z,101781.84
2018-07-13T00:53:48.617Z,101776.27
2018-07-13T00:57:13.017Z,101783.72
2018-07-13T01:00:37.440Z,101792.08
2018-07-13T01:04:01.871Z,101789.64
2018-07-13T01:07:26.305Z,101792.44
2018-07-13T01:10:50.748Z,101795.91
2018-07-13T01:14:15.164Z,101789.77
2018-07-13T01:17:39.582Z,101788.41
2018-07-13T01:21:04.075Z,101785.05
2018-07-13T01:24:28.516Z,101779.59
2018-07-13T01:27:52.959Z,101785.70
2018-07-13T01:31:17.391Z,101784.20
2018-07-13T01:34:41.827Z,101784.25
2018-07-13T01:38:06.330Z,101789.17
2018-07-13T01:41:30.934Z,101793.45
2018-07-13T01:44:55.344Z,101800.17
2018-07-13T01:48:19.758Z,101794.58
2018-07-13T01:51:44.186Z,101793.08
2018-07-13T01:55:08.616Z,101797.45
2018-07-13T01:58:33.050Z,101796.84
2018-07-13T02:01:57.468Z,101796.95
2018-07-13T02:13:27.901Z,101799.13
2018-07-13T02:20:52.617Z,101803.31
2018-07-13T02:24:33.225Z,101796.66
2018-07-13T02:28:20.249Z,101796.77
2018-07-13T02:32:11.243Z,101798.02
2018-07-13T02:36:00.536Z,101793.80
2018-07-13T02:39:45.917Z,101794.44
2018-07-13T02:48:38.246Z,101801.25
2018-07-13T02:52:22.860Z,101806.66
2018-07-13T02:56:17.782Z,101808.25
2018-07-13T03:00:01.188Z,101814.20
2018-07-13T03:03:41.081Z,101813.42
2018-07-13T03:07:16.327Z,101815.05
2018-07-13T03:10:58.250Z,101810.98
2018-07-13T03:14:48.088Z,101821.95
2018-07-13T03:18:27.737Z,101824.44
2018-07-13T03:22:16.246Z,101821.06
2018-07-13T03:25:57.293Z,101829.36
2018-07-13T03:29:50.786Z,101826.88
2018-07-13T03:33:21.941Z,101840.72
2018-07-13T03:37:04.048Z,101838.30
2018-07-13T03:40:49.780Z,101836.91
2018-07-13T03:44:43.161Z,101843.94
2018-07-13T03:48:58.602Z,101846.05
2018-07-13T03:54:11.067Z,101839.27
2018-07-13T03:57:57.217Z,101845.21
2018-07-13T04:09:35.580Z,101846.66
2018-07-13T04:13:19.426Z,101846.08
2018-07-13T04:17:05.770Z,101843.72
2018-07-13T04:20:51.973Z,101843.35
2018-07-13T04:24:34.490Z,101846.85
2018-07-13T04:32:14.990Z,101844.25
2018-07-13T04:35:56.593Z,101849.23
2018-07-13T04:39:41.462Z,101846.77
2018-07-13T04:44:27.313Z,101848.03
2018-07-13T04:48:06.367Z,101850.03
2018-07-13T04:51:31.016Z,101850.98
2018-07-13T04:54:55.525Z,101851.31
2018-07-13T04:58:19.802Z,101854.41
2018-07-13T05:01:44.266Z,101857.98
2018-07-13T05:05:09.200Z,101861.97
2018-07-13T05:08:33.652Z,101859.61
2018-07-13T05:11:58.064Z,101861.63
2018-07-13T05:15:22.558Z,101854.33
2018-07-13T05:18:46.985Z,101855.05
2018-07-13T05:22:11.517Z,101852.08
2018-07-13T05:25:36.556Z,101853.84
2018-07-13T05:29:01.153Z,101860.39
2018-07-13T05:32:25.735Z,101862.12
2018-07-13T05:35:50.355Z,101859.39
2018-07-13T05:39:14.866Z,101857.14
2018-07-13T05:42:39.362Z,101869.40
2018-07-13T05:46:03.928Z,101871.40
2018-07-13T05:49:29.247Z,101874.09
2018-07-13T05:53:18.859Z,101875.83
2018-07-13T05:57:02.509Z,101885.52
2018-07-13T06:00:27.111Z,101881.56
2018-07-13T06:03:51.608Z,101885.98
2018-07-13T06:07:16.085Z,101884.57
2018-07-13T06:10:40.647Z,101880.97
2018-07-13T06:14:05.354Z,101878.03
2018-07-13T06:17:29.852Z,101879.63
2018-07-13T06:20:54.358Z,101887.84
2018-07-13T06:24:18.821Z,101887.69
2018-07-13T06:27:43.273Z,101882.64
2018-07-13T06:31:07.849Z,101879.26
2018-07-13T06:34:32.336Z,101876.67
2018-07-13T06:37:56.891Z,101882.27
2018-07-13T06:41:21.437Z,101881.42
2018-07-13T06:44:46.009Z,101885.68
2018-07-13T06:48:11.093Z,101878.23
2018-07-13T06:51:35.595Z,101883.64
2018-07-13T06:55:00.078Z,101891.59
2018-07-13T06:58:41.405Z,101890.84
2018-07-13T07:02:05.879Z,101888.30
2018-07-13T07:06:36.180Z,101893.24
2018-07-13T07:10:00.695Z,101892.28
2018-07-13T07:13:33.437Z,101903.30
2018-07-13T07:16:57.895Z,101894.23
2018-07-13T07:20:22.352Z,101896.61
2018-07-13T07:23:46.826Z,101893.41
2018-07-13T07:27:11.305Z,101892.31
2018-07-13T07:30:35.879Z,101890.91
2018-07-13T07:34:00.337Z,101893.70
2018-07-13T07:37:24.986Z,101893.66
2018-07-13T07:40:49.872Z,101889.51
2018-07-13T07:44:14.363Z,101896.57
2018-07-13T07:47:38.859Z,101895.94
2018-07-13T07:51:03.322Z,101892.98
2018-07-13T07:54:27.763Z,101889.80
2018-07-13T07:57:52.232Z,101896.82
2018-07-13T08:01:16.686Z,101896.29
2018-07-13T08:04:41.215Z,101899.83
2018-07-13T08:08:05.804Z,101899.08
2018-07-13T08:11:30.200Z,101890.55
2018-07-13T08:14:54.657Z,101890.90
2018-07-13T08:18:19.106Z,101899.34
2018-07-13T08:21:45.351Z,101897.38
2018-07-13T08:25:14.574Z,101891.87
2018-07-13T08:28:39.099Z,101893.41
2018-07-13T08:32:03.630Z,101891.02
2018-07-13T08:35:28.062Z,101892.27
2018-07-13T08:38:52.502Z,101895.48
2018-07-13T08:42:16.938Z,101899.71
2018-07-13T08:45:41.095Z,101902.44
2018-07-13T08:49:05.659Z,101898.42
2018-07-13T08:52:30.655Z,101898.42
2018-07-13T08:55:55.111Z,101900.81
2018-07-13T08:59:19.612Z,101891.63
2018-07-13T09:02:44.095Z,101891.30
2018-07-13T09:06:08.640Z,101895.80
2018-07-13T09:09:33.080Z,101891.39
2018-07-13T09:12:57.626Z,101897.70
2018-07-13T09:16:22.090Z,101897.33
2018-07-13T09:19:46.656Z,101889.05
2018-07-13T09:23:11.094Z,101889.91
2018-07-13T09:26:35.666Z,101889.58
2018-07-13T09:30:00.155Z,101895.22
2018-07-13T09:33:24.630Z,101899.07
2018-07-13T09:36:49.128Z,101895.48
2018-07-13T09:40:13.598Z,101890.89
2018-07-13T09:43:38.047Z,101887.79
2018-07-13T09:47:02.761Z,101883.83
2018-07-13T09:50:27.073Z,101882.30
2018-07-13T09:53:51.621Z,101887.30
2018-07-13T09:57:16.039Z,101891.39
2018-07-13T10:01:48.323Z,101887.64
2018-07-13T10:05:12.846Z,101897.62
2018-07-13T10:08:37.559Z,101890.92
2018-07-13T10:12:02.016Z,101889.77
2018-07-13T10:15:26.543Z,101885.98
2018-07-13T10:18:51.053Z,101877.16
2018-07-13T10:22:19.383Z,101875.84
2018-07-13T10:25:52.496Z,101881.78
2018-07-13T10:29:22.981Z,101871.17
2018-07-13T10:32:47.434Z,101875.92
2018-07-13T10:36:17.068Z,101878.38
2018-07-13T10:39:41.516Z,101877.86
2018-07-13T10:43:07.945Z,101894.87
2018-07-13T10:46:32.470Z,101882.39
2018-07-13T10:49:56.908Z,101882.47
2018-07-13T10:53:21.368Z,101876.28
2018-07-13T10:56:45.876Z,101881.71
2018-07-13T11:00:10.353Z,101874.02
2018-07-13T11:03:35.060Z,101872.12
2018-07-13T11:06:59.472Z,101871.21
2018-07-13T11:10:23.957Z,101870.05
2018-07-13T11:13:49.307Z,101863.36
2018-07-13T11:17:13.785Z,101865.59
2018-07-13T11:20:38.260Z,101856.87
2018-07-13T11:24:02.831Z,101851.18
2018-07-13T11:27:27.382Z,101858.34
2018-07-13T11:30:51.827Z,101846.23
2018-07-13T11:34:16.408Z,101848.73
2018-07-13T11:37:40.857Z,101843.95
2018-07-13T11:41:05.359Z,101836.73
2018-07-13T11:44:29.810Z,101841.67
2018-07-13T11:47:54.289Z,101838.78
2018-07-13T11:51:18.754Z,101842.38
2018-07-13T11:54:43.202Z,101835.48
2018-07-13T11:58:07.920Z,101830.81
2018-07-13T12:01:32.410Z,101822.41
2018-07-13T12:04:56.868Z,101822.23
2018-07-13T12:08:21.334Z,101816.77
2018-07-13T12:11:45.908Z,101819.71
2018-07-13T12:15:10.398Z,101810.34
2018-07-13T12:18:34.844Z,101802.88
2018-07-13T12:21:59.318Z,101800.17
2018-07-13T12:25:23.870Z,101795.27
2018-07-13T12:28:48.322Z,101785.00
2018-07-13T12:32:12.771Z,101783.08
2018-07-13T12:35:37.262Z,101785.45
2018-07-13T12:39:01.727Z,101780.08
2018-07-13T12:42:26.490Z,101778.32
2018-07-13T12:45:50.931Z,101779.09
2018-07-13T12:49:15.547Z,101778.13
2018-07-13T12:52:39.994Z,101782.00
2018-07-13T12:56:04.514Z,101783.20
2018-07-13T12:59:29.120Z,101771.64
2018-07-13T13:02:53.549Z,101780.75
2018-07-13T13:06:18.074Z,101773.37
2018-07-13T13:09:43.327Z,101778.33
2018-07-13T13:13:07.573Z,101769.46
2018-07-13T13:16:32.068Z,101774.88
2018-07-13T13:19:56.598Z,101767.55
2018-07-13T13:23:21.093Z,101765.54
2018-07-13T13:26:45.611Z,101765.98
2018-07-13T13:30:10.108Z,101763.42
2018-07-13T13:33:34.631Z,101761.55
2018-07-13T13:36:59.054Z,101758.72
2018-07-13T13:40:23.530Z,101762.23
2018-07-13T13:43:47.936Z,101754.56
2018-07-13T13:47:12.336Z,101749.64
2018-07-13T13:50:36.719Z,101746.94
2018-07-13T13:54:01.167Z,101747.46
2018-07-13T13:57:25.613Z,101732.60
2018-07-13T14:00:50.115Z,101738.84
2018-07-13T14:04:14.567Z,101734.61
2018-07-13T14:07:38.978Z,101726.38
2018-07-13T14:11:03.415Z,101727.84
2018-07-13T14:14:27.882Z,101721.28
2018-07-13T14:17:52.314Z,101724.23
2018-07-13T14:21:16.754Z,101723.77
2018-07-13T14:24:41.154Z,101723.90
2018-07-13T14:28:05.775Z,101719.30
2018-07-13T14:31:30.222Z,101711.75
2018-07-13T14:34:54.638Z,101714.19
2018-07-13T14:38:19.056Z,101710.50
2018-07-13T14:41:43.491Z,101706.77
2018-07-13T14:45:07.932Z,101707.15
2018-07-13T14:48:32.353Z,101694.31
2018-07-13T14:51:56.782Z,101698.17
2018-07-13T14:55:21.234Z,101692.31
2018-07-13T14:58:45.707Z,101691.45
2018-07-13T15:02:10.144Z,101692.20
2018-07-13T15:05:34.629Z,101694.26
2018-07-13T15:08:59.031Z,101684.66
2018-07-13T15:12:23.497Z,101679.30
2018-07-13T15:15:47.965Z,101683.20
2018-07-13T15:19:12.449Z,101687.87
2018-07-13T15:22:36.883Z,101677.45
2018-07-13T15:26:01.329Z,101672.50
2018-07-13T15:29:25.809Z,101683.58
2018-07-13T15:32:50.216Z,101681.59
2018-07-13T15:36:14.732Z,101685.14
2018-07-13T15:39:39.167Z,101677.92
2018-07-13T15:43:03.620Z,101671.30
2018-07-13T15:46:28.082Z,101675.01
2018-07-13T15:49:52.510Z,101676.72
2018-07-13T15:53:17.014Z,101667.62
2018-07-13T15:56:41.475Z,101665.55
2018-07-13T16:00:05.995Z,101668.77
2018-07-13T16:03:37.046Z,101664.28
2018-07-13T16:07:01.989Z,101662.09
2018-07-13T16:10:26.425Z,101656.15
2018-07-13T16:13:51.032Z,101652.89
2018-07-13T16:17:15.804Z,101660.03
2018-07-13T16:20:40.393Z,101647.34
2018-07-13T16:24:04.883Z,101649.84
2018-07-13T16:27:29.336Z,101651.90
2018-07-13T16:30:53.796Z,101648.83
2018-07-13T16:34:18.205Z,101640.66
2018-07-13T16:37:42.622Z,101640.28
2018-07-13T16:41:07.212Z,101641.62
2018-07-13T16:44:31.634Z,101636.70
2018-07-13T16:47:56.075Z,101627.92
2018-07-13T16:51:20.524Z,101629.02
2018-07-13T16:54:44.973Z,101633.03
2018-07-13T16:58:09.405Z,101624.02
2018-07-13T17:01:33.902Z,101623.59
2018-07-13T17:04:58.426Z,101620.50
2018-07-13T17:08:22.866Z,101620.46
2018-07-13T17:11:47.909Z,101615.07
2018-07-13T17:15:12.454Z,101612.27
2018-07-13T17:18:37.444Z,101610.01
2018-07-13T17:22:02.738Z,101612.36
2018-07-13T17:25:27.177Z,101610.44
2018-07-13T17:28:51.765Z,101606.53
2018-07-13T17:32:16.227Z,101608.34
2018-07-13T17:35:40.658Z,101609.09
2018-07-13T17:39:06.830Z,101609.08
2018-07-13T17:42:32.699Z,101607.07
2018-07-13T17:45:57.787Z,101609.26
2018-07-13T17:49:23.115Z,101608.78
2018-07-13T17:52:48.108Z,101604.50
2018-07-13T17:56:12.762Z,101603.20
2018-07-13T17:59:37.772Z,101601.12
2018-07-13T18:03:02.489Z,101590.77
2018-07-13T18:06:27.555Z,101602.26
2018-07-13T18:09:52.283Z,101603.67
2018-07-13T18:13:17.487Z,101599.44
2018-07-13T18:16:42.457Z,101602.77
2018-07-13T18:20:07.047Z,101599.53
2018-07-13T18:23:31.757Z,101597.60
2018-07-13T18:26:56.771Z,101599.82
2018-07-13T18:30:21.828Z,101605.63
2018-07-13T18:33:47.329Z,101602.91
2018-07-13T18:37:12.614Z,101598.02
2018-07-13T18:40:38.642Z,101602.07
2018-07-13T18:44:03.110Z,101609.98
2018-07-13T18:47:27.684Z,101606.73
2018-07-13T18:50:52.456Z,101613.47
2018-07-13T18:54:17.299Z,101611.64
2018-07-13T18:57:42.143Z,101615.81
2018-07-13T19:01:06.629Z,101620.64
2018-07-13T19:04:32.163Z,101609.31
2018-07-13T19:07:57.232Z,101618.39
2018-07-13T19:15:03.675Z,101618.80
2018-07-13T19:18:36.941Z,101624.32
2018-07-13T19:22:09.443Z,101620.97
2018-07-13T19:25:37.335Z,101627.89
2018-07-13T19:29:02.131Z,101629.53
2018-07-13T19:32:26.570Z,101632.42
2018-07-13T19:35:52.283Z,101634.97
2018-07-13T19:39:18.040Z,101646.00
2018-07-13T19:42:44.720Z,101647.61
2018-07-13T19:46:11.801Z,101646.75
2018-07-13T19:49:37.301Z,101659.00
2018-07-13T19:53:02.827Z,101657.17
2018-07-13T19:56:27.272Z,101663.78
2018-07-13T20:00:08.966Z,101668.81
2018-07-13T20:03:33.414Z,101667.98
2018-07-13T20:06:57.894Z,101675.22
2018-07-13T20:10:22.443Z,101676.05
2018-07-13T20:13:46.872Z,101680.49
2018-07-13T20:17:11.337Z,101680.84
2018-07-13T20:20:35.730Z,101680.48
2018-07-13T20:24:00.151Z,101679.12
2018-07-13T20:27:24.586Z,101681.36
2018-07-13T20:30:49.031Z,101679.30
2018-07-13T20:34:13.633Z,101687.25
2018-07-13T20:37:38.062Z,101678.61
2018-07-13T20:41:02.489Z,101692.40
2018-07-13T20:44:26.948Z,101696.55
2018-07-13T20:47:51.422Z,101698.95
2018-07-13T20:51:15.880Z,101697.24
2018-07-13T20:54:40.312Z,101693.95
2018-07-13T20:58:04.798Z,101698.77
2018-07-13T21:01:29.236Z,101698.96
2018-07-13T21:04:53.738Z,101703.61
2018-07-13T21:08:18.200Z,101705.85
2018-07-13T21:11:42.645Z,101706.02
2018-07-13T21:15:07.136Z,101710.84
2018-07-13T21:18:31.559Z,101719.47
2018-07-13T21:21:55.999Z,101724.95
2018-07-13T21:25:20.434Z,101730.62
2018-07-13T21:28:44.854Z,101730.95
2018-07-13T21:32:09.319Z,101722.09
2018-07-13T21:35:33.723Z,101723.12
2018-07-13T21:38:58.200Z,101715.92
2018-07-13T21:42:22.648Z,101727.50
2018-07-13T21:45:47.079Z,101720.95
2018-07-13T21:49:11.555Z,101719.84
2018-07-13T21:52:36.098Z,101720.41
2018-07-13T21:56:00.558Z,101727.97
2018-07-13T21:59:25.076Z,101725.34
2018-07-13T22:02:49.567Z,101726.22
2018-07-13T22:06:14.004Z,101726.77
2018-07-13T22:09:38.449Z,101728.31
2018-07-13T22:13:02.920Z,101725.86
2018-07-13T22:16:27.399Z,101728.19
2018-07-13T22:19:51.822Z,101730.16
2018-07-13T22:23:16.361Z,101737.30
2018-07-13T22:26:40.821Z,101740.30
2018-07-13T22:30:05.693Z,101740.34
2018-07-13T22:33:30.129Z,101743.80
2018-07-13T22:36:54.628Z,101741.17
2018-07-13T22:40:19.135Z,101739.27
2018-07-13T22:43:43.514Z,101746.83
2018-07-13T22:47:07.953Z,101748.16
2018-07-13T22:50:32.370Z,101751.41
2018-07-13T22:53:56.788Z,101748.08
2018-07-13T22:57:21.224Z,101747.52
2018-07-13T23:00:45.594Z,101752.52
2018-07-13T23:04:10.039Z,101753.44
2018-07-13T23:07:34.431Z,101755.77
2018-07-13T23:10:59.513Z,101757.30
2018-07-13T23:14:23.922Z,101755.13
2018-07-13T23:17:48.334Z,101760.11
2018-07-13T23:21:12.773Z,101751.27
2018-07-13T23:24:37.212Z,101748.33
2018-07-13T23:28:01.636Z,101750.34
2018-07-13T23:31:26.067Z,101750.48
2018-07-13T23:34:50.558Z,101750.73
2018-07-13T23:38:15.059Z,101753.64
2018-07-13T23:41:39.494Z,101751.16
2018-07-13T23:45:03.951Z,101758.38
2018-07-13T23:48:28.361Z,101745.80
2018-07-13T23:51:52.783Z,101749.66
2018-07-13T23:55:17.215Z,101752.20
2018-07-13T23:58:41.732Z,101747.73
